sensor_id;sensor_type;location;lat;lon;timestamp;temperature;humidity
20568;DHT22;10442;49.932;11.592;2023-03-01T00:01:23;0.50;63.70
20568;DHT22;10442;49.932;11.592;2023-03-01T00:03:51;0.50;63.80
20568;DHT22;10442;49.932;11.592;2023-03-01T00:06:20;0.40;64.20
20568;DHT22;10442;49.932;11.592;2023-03-01T00:08:48;0.40;64.20
20568;DHT22;10442;49.932;11.592;2023-03-01T00:13:48;0.40;64.40
20568;DHT22;10442;49.932;11.592;2023-03-01T00:16:22;0.30;65.20
20568;DHT22;10442;49.932;11.592;2023-03-01T00:18:50;0.30;64.50
20568;DHT22;10442;49.932;11.592;2023-03-01T00:21:20;0.30;64.60
20568;DHT22;10442;49.932;11.592;2023-03-01T00:23:48;0.20;64.70
20568;DHT22;10442;49.932;11.592;2023-03-01T00:26:18;0.20;64.80
20568;DHT22;10442;49.932;11.592;2023-03-01T00:28:46;0.10;65.00
20568;DHT22;10442;49.932;11.592;2023-03-01T00:31:22;0.10;65.10
20568;DHT22;10442;49.932;11.592;2023-03-01T00:33:52;0.00;65.10
20568;DHT22;10442;49.932;11.592;2023-03-01T00:36:25;0.00;65.20
20568;DHT22;10442;49.932;11.592;2023-03-01T00:38:54;0.00;65.20
20568;DHT22;10442;49.932;11.592;2023-03-01T00:41:22;0.00;65.30
20568;DHT22;10442;49.932;11.592;2023-03-01T00:43:50;0.00;65.40
20568;DHT22;10442;49.932;11.592;2023-03-01T00:46:20;-0.10;65.30
20568;DHT22;10442;49.932;11.592;2023-03-01T00:48:49;-0.10;65.60
20568;DHT22;10442;49.932;11.592;2023-03-01T00:51:21;-0.10;65.50
20568;DHT22;10442;49.932;11.592;2023-03-01T00:53:54;-0.20;65.60
20568;DHT22;10442;49.932;11.592;2023-03-01T00:56:22;-0.20;65.60
20568;DHT22;10442;49.932;11.592;2023-03-01T00:58:50;-0.20;65.70
20568;DHT22;10442;49.932;11.592;2023-03-01T01:01:22;-0.20;65.80
20568;DHT22;10442;49.932;11.592;2023-03-01T01:03:52;-0.20;65.90
20568;DHT22;10442;49.932;11.592;2023-03-01T01:06:23;-0.20;65.90
20568;DHT22;10442;49.932;11.592;2023-03-01T01:08:52;-0.20;66.00
20568;DHT22;10442;49.932;11.592;2023-03-01T01:11:21;-0.30;65.80
20568;DHT22;10442;49.932;11.592;2023-03-01T01:13:49;-0.30;65.80
20568;DHT22;10442;49.932;11.592;2023-03-01T01:16:19;-0.30;65.80
20568;DHT22;10442;49.932;11.592;2023-03-01T01:18:46;-0.30;65.80
20568;DHT22;10442;49.932;11.592;2023-03-01T01:21:16;-0.30;65.70
20568;DHT22;10442;49.932;11.592;2023-03-01T01:23:44;-0.30;65.80
20568;DHT22;10442;49.932;11.592;2023-03-01T01:26:21;-0.30;66.00
20568;DHT22;10442;49.932;11.592;2023-03-01T01:28:50;-0.40;66.00
20568;DHT22;10442;49.932;11.592;2023-03-01T01:31:18;-0.40;66.00
20568;DHT22;10442;49.932;11.592;2023-03-01T01:33:46;-0.40;66.10
20568;DHT22;10442;49.932;11.592;2023-03-01T01:36:14;-0.40;66.30
20568;DHT22;10442;49.932;11.592;2023-03-01T01:38:41;-0.40;66.10
20568;DHT22;10442;49.932;11.592;2023-03-01T01:41:11;-0.40;66.00
20568;DHT22;10442;49.932;11.592;2023-03-01T01:43:41;-0.40;66.00
20568;DHT22;10442;49.932;11.592;2023-03-01T01:48:57;-0.50;66.30
20568;DHT22;10442;49.932;11.592;2023-03-01T01:51:34;-0.50;66.20
20568;DHT22;10442;49.932;11.592;2023-03-01T01:54:18;-0.50;66.50
20568;DHT22;10442;49.932;11.592;2023-03-01T01:56:53;-0.60;66.60
20568;DHT22;10442;49.932;11.592;2023-03-01T01:59:23;-0.60;66.60
20568;DHT22;10442;49.932;11.592;2023-03-01T02:01:53;-0.60;66.60
20568;DHT22;10442;49.932;11.592;2023-03-01T02:04:21;-0.60;66.80
20568;DHT22;10442;49.932;11.592;2023-03-01T02:07:17;-0.70;66.80
20568;DHT22;10442;49.932;11.592;2023-03-01T02:09:47;-0.70;67.30
20568;DHT22;10442;49.932;11.592;2023-03-01T02:12:17;-0.70;67.20
20568;DHT22;10442;49.932;11.592;2023-03-01T02:14:45;-0.70;67.20
20568;DHT22;10442;49.932;11.592;2023-03-01T02:17:15;-0.70;67.10
20568;DHT22;10442;49.932;11.592;2023-03-01T02:22:36;-0.80;67.10
20568;DHT22;10442;49.932;11.592;2023-03-01T02:27:40;-0.80;67.20
20568;DHT22;10442;49.932;11.592;2023-03-01T02:30:12;-0.80;67.30
20568;DHT22;10442;49.932;11.592;2023-03-01T02:32:40;-0.80;67.20
20568;DHT22;10442;49.932;11.592;2023-03-01T02:35:13;-0.80;67.00
20568;DHT22;10442;49.932;11.592;2023-03-01T02:37:43;-0.80;66.90
20568;DHT22;10442;49.932;11.592;2023-03-01T02:40:15;-0.80;66.80
20568;DHT22;10442;49.932;11.592;2023-03-01T02:42:53;-0.80;66.80
20568;DHT22;10442;49.932;11.592;2023-03-01T02:45:21;-0.80;66.90
20568;DHT22;10442;49.932;11.592;2023-03-01T02:47:52;-0.90;66.90
20568;DHT22;10442;49.932;11.592;2023-03-01T02:50:46;-0.90;67.10
20568;DHT22;10442;49.932;11.592;2023-03-01T02:53:23;-0.90;67.40
20568;DHT22;10442;49.932;11.592;2023-03-01T02:55:54;-0.90;67.20
20568;DHT22;10442;49.932;11.592;2023-03-01T02:58:22;-0.90;67.10
20568;DHT22;10442;49.932;11.592;2023-03-01T03:00:51;-0.90;67.00
20568;DHT22;10442;49.932;11.592;2023-03-01T03:03:20;-0.90;67.00
20568;DHT22;10442;49.932;11.592;2023-03-01T03:05:49;-1.00;66.90
20568;DHT22;10442;49.932;11.592;2023-03-01T03:08:16;-0.90;67.00
20568;DHT22;10442;49.932;11.592;2023-03-01T03:10:51;-0.90;67.10
20568;DHT22;10442;49.932;11.592;2023-03-01T03:13:19;-1.00;67.10
20568;DHT22;10442;49.932;11.592;2023-03-01T03:15:47;-1.00;67.30
20568;DHT22;10442;49.932;11.592;2023-03-01T03:18:16;-0.90;67.40
20568;DHT22;10442;49.932;11.592;2023-03-01T03:20:44;-1.10;67.40
20568;DHT22;10442;49.932;11.592;2023-03-01T03:23:12;-1.10;67.30
20568;DHT22;10442;49.932;11.592;2023-03-01T03:25:40;-1.10;67.30
20568;DHT22;10442;49.932;11.592;2023-03-01T03:28:07;-1.10;67.50
20568;DHT22;10442;49.932;11.592;2023-03-01T03:30:39;-1.10;67.60
20568;DHT22;10442;49.932;11.592;2023-03-01T03:33:08;-1.10;67.70
20568;DHT22;10442;49.932;11.592;2023-03-01T03:35:45;-1.10;67.70
20568;DHT22;10442;49.932;11.592;2023-03-01T03:38:15;-1.20;67.70
20568;DHT22;10442;49.932;11.592;2023-03-01T03:43:29;-1.20;67.50
20568;DHT22;10442;49.932;11.592;2023-03-01T03:45:57;-1.20;67.50
20568;DHT22;10442;49.932;11.592;2023-03-01T03:48:25;-1.20;67.50
20568;DHT22;10442;49.932;11.592;2023-03-01T03:50:55;-1.10;67.60
20568;DHT22;10442;49.932;11.592;2023-03-01T03:53:24;-1.30;67.40
20568;DHT22;10442;49.932;11.592;2023-03-01T03:55:53;-1.30;67.50
20568;DHT22;10442;49.932;11.592;2023-03-01T03:58:23;-1.30;67.60
20568;DHT22;10442;49.932;11.592;2023-03-01T04:00:55;-1.30;67.50
20568;DHT22;10442;49.932;11.592;2023-03-01T04:03:24;-1.30;67.40
20568;DHT22;10442;49.932;11.592;2023-03-01T04:05:52;-1.30;67.50
20568;DHT22;10442;49.932;11.592;2023-03-01T04:08:22;-1.30;67.70
20568;DHT22;10442;49.932;11.592;2023-03-01T04:10:51;-1.30;67.80
20568;DHT22;10442;49.932;11.592;2023-03-01T04:13:21;-1.30;67.80
20568;DHT22;10442;49.932;11.592;2023-03-01T04:15:51;-1.40;67.90
20568;DHT22;10442;49.932;11.592;2023-03-01T04:18:20;-1.40;68.00
20568;DHT22;10442;49.932;11.592;2023-03-01T04:20:49;-1.40;67.90
20568;DHT22;10442;49.932;11.592;2023-03-01T04:23:20;-1.40;68.00
20568;DHT22;10442;49.932;11.592;2023-03-01T04:25:49;-1.40;68.20
20568;DHT22;10442;49.932;11.592;2023-03-01T04:28:23;-1.50;68.00
20568;DHT22;10442;49.932;11.592;2023-03-01T04:30:55;-1.50;68.10
20568;DHT22;10442;49.932;11.592;2023-03-01T04:33:24;-1.50;68.10
20568;DHT22;10442;49.932;11.592;2023-03-01T04:35:51;-1.50;68.10
20568;DHT22;10442;49.932;11.592;2023-03-01T04:38:20;-1.40;68.20
20568;DHT22;10442;49.932;11.592;2023-03-01T04:40:48;-1.50;68.20
20568;DHT22;10442;49.932;11.592;2023-03-01T04:43:16;-1.40;68.30
20568;DHT22;10442;49.932;11.592;2023-03-01T04:45:44;-1.60;68.30
20568;DHT22;10442;49.932;11.592;2023-03-01T04:48:12;-1.60;68.30
20568;DHT22;10442;49.932;11.592;2023-03-01T04:50:40;-1.60;68.20
20568;DHT22;10442;49.932;11.592;2023-03-01T04:53:08;-1.60;68.20
20568;DHT22;10442;49.932;11.592;2023-03-01T04:55:35;-1.60;68.30
20568;DHT22;10442;49.932;11.592;2023-03-01T04:58:03;-1.60;68.50
20568;DHT22;10442;49.932;11.592;2023-03-01T05:00:30;-1.50;68.70
20568;DHT22;10442;49.932;11.592;2023-03-01T05:03:00;-1.60;68.70
20568;DHT22;10442;49.932;11.592;2023-03-01T05:05:36;-1.60;68.50
20568;DHT22;10442;49.932;11.592;2023-03-01T05:08:07;-1.70;68.30
20568;DHT22;10442;49.932;11.592;2023-03-01T05:10:36;-1.60;68.20
20568;DHT22;10442;49.932;11.592;2023-03-01T05:13:03;-1.70;68.00
20568;DHT22;10442;49.932;11.592;2023-03-01T05:15:31;-1.70;68.00
20568;DHT22;10442;49.932;11.592;2023-03-01T05:18:00;-1.70;68.20
20568;DHT22;10442;49.932;11.592;2023-03-01T05:20:29;-1.70;68.20
20568;DHT22;10442;49.932;11.592;2023-03-01T05:22:59;-1.70;68.30
20568;DHT22;10442;49.932;11.592;2023-03-01T05:25:27;-1.80;68.50
20568;DHT22;10442;49.932;11.592;2023-03-01T05:28:01;-1.80;68.70
20568;DHT22;10442;49.932;11.592;2023-03-01T05:30:33;-1.80;68.90
20568;DHT22;10442;49.932;11.592;2023-03-01T05:33:01;-1.80;69.00
20568;DHT22;10442;49.932;11.592;2023-03-01T05:35:29;-1.80;68.90
20568;DHT22;10442;49.932;11.592;2023-03-01T05:37:56;-1.70;68.90
20568;DHT22;10442;49.932;11.592;2023-03-01T05:40:25;-1.80;68.90
20568;DHT22;10442;49.932;11.592;2023-03-01T05:42:55;-1.80;69.00
20568;DHT22;10442;49.932;11.592;2023-03-01T05:45:25;-1.60;69.10
20568;DHT22;10442;49.932;11.592;2023-03-01T05:47:54;-1.80;68.70
20568;DHT22;10442;49.932;11.592;2023-03-01T05:50:28;-1.80;68.50
20568;DHT22;10442;49.932;11.592;2023-03-01T05:53:02;-1.80;68.50
20568;DHT22;10442;49.932;11.592;2023-03-01T05:55:30;-1.80;68.80
20568;DHT22;10442;49.932;11.592;2023-03-01T05:58:00;-1.80;69.00
20568;DHT22;10442;49.932;11.592;2023-03-01T06:00:28;-1.80;69.10
20568;DHT22;10442;49.932;11.592;2023-03-01T06:02:59;-1.70;69.00
20568;DHT22;10442;49.932;11.592;2023-03-01T06:05:27;-1.80;68.80
20568;DHT22;10442;49.932;11.592;2023-03-01T06:07:59;-1.80;68.70
20568;DHT22;10442;49.932;11.592;2023-03-01T06:10:27;-1.80;68.80
20568;DHT22;10442;49.932;11.592;2023-03-01T06:12:55;-1.80;68.70
20568;DHT22;10442;49.932;11.592;2023-03-01T06:15:22;-1.80;68.70
20568;DHT22;10442;49.932;11.592;2023-03-01T06:17:50;-1.80;68.90
20568;DHT22;10442;49.932;11.592;2023-03-01T06:20:20;-1.80;68.70
20568;DHT22;10442;49.932;11.592;2023-03-01T06:22:49;-1.80;68.80
20568;DHT22;10442;49.932;11.592;2023-03-01T06:25:19;-1.80;69.10
20568;DHT22;10442;49.932;11.592;2023-03-01T06:27:47;-1.70;69.40
20568;DHT22;10442;49.932;11.592;2023-03-01T06:30:19;-1.70;70.30
20568;DHT22;10442;49.932;11.592;2023-03-01T06:32:47;-1.70;69.90
20568;DHT22;10442;49.932;11.592;2023-03-01T06:35:17;-1.60;70.20
20568;DHT22;10442;49.932;11.592;2023-03-01T06:37:46;-1.50;70.30
20568;DHT22;10442;49.932;11.592;2023-03-01T06:40:15;-1.50;70.40
20568;DHT22;10442;49.932;11.592;2023-03-01T06:42:48;-1.40;70.40
20568;DHT22;10442;49.932;11.592;2023-03-01T06:45:19;-1.30;70.70
20568;DHT22;10442;49.932;11.592;2023-03-01T06:47:48;-1.20;70.90
20568;DHT22;10442;49.932;11.592;2023-03-01T06:50:17;-1.10;71.10
20568;DHT22;10442;49.932;11.592;2023-03-01T06:52:45;-0.80;71.90
20568;DHT22;10442;49.932;11.592;2023-03-01T06:55:13;-0.50;72.50
20568;DHT22;10442;49.932;11.592;2023-03-01T06:57:42;0.00;72.50
20568;DHT22;10442;49.932;11.592;2023-03-01T07:00:10;0.40;71.90
20568;DHT22;10442;49.932;11.592;2023-03-01T07:02:38;0.90;71.10
20568;DHT22;10442;49.932;11.592;2023-03-01T07:05:07;1.50;70.20
20568;DHT22;10442;49.932;11.592;2023-03-01T07:07:34;2.10;69.00
20568;DHT22;10442;49.932;11.592;2023-03-01T07:10:02;2.60;68.20
20568;DHT22;10442;49.932;11.592;2023-03-01T07:12:29;3.00;66.40
20568;DHT22;10442;49.932;11.592;2023-03-01T07:14:57;3.40;65.20
20568;DHT22;10442;49.932;11.592;2023-03-01T07:17:24;3.90;64.20
20568;DHT22;10442;49.932;11.592;2023-03-01T07:19:52;4.20;63.80
20568;DHT22;10442;49.932;11.592;2023-03-01T07:22:19;4.60;63.00
20568;DHT22;10442;49.932;11.592;2023-03-01T07:24:47;5.00;62.50
20568;DHT22;10442;49.932;11.592;2023-03-01T07:27:14;5.50;61.50
20568;DHT22;10442;49.932;11.592;2023-03-01T07:29:41;5.90;61.20
20568;DHT22;10442;49.932;11.592;2023-03-01T07:32:09;6.40;60.70
20568;DHT22;10442;49.932;11.592;2023-03-01T07:34:37;6.90;60.00
20568;DHT22;10442;49.932;11.592;2023-03-01T07:37:05;7.40;59.50
20568;DHT22;10442;49.932;11.592;2023-03-01T07:39:32;7.90;58.40
20568;DHT22;10442;49.932;11.592;2023-03-01T07:42:00;8.50;57.70
20568;DHT22;10442;49.932;11.592;2023-03-01T07:44:27;9.00;56.90
20568;DHT22;10442;49.932;11.592;2023-03-01T07:46:55;9.40;55.50
20568;DHT22;10442;49.932;11.592;2023-03-01T07:49:25;9.90;54.90
20568;DHT22;10442;49.932;11.592;2023-03-01T07:51:53;10.30;53.90
20568;DHT22;10442;49.932;11.592;2023-03-01T07:54:21;10.70;52.70
20568;DHT22;10442;49.932;11.592;2023-03-01T07:56:49;11.10;52.20
20568;DHT22;10442;49.932;11.592;2023-03-01T07:59:16;11.50;52.10
20568;DHT22;10442;49.932;11.592;2023-03-01T08:01:43;11.80;51.00
20568;DHT22;10442;49.932;11.592;2023-03-01T08:04:11;12.20;50.90
20568;DHT22;10442;49.932;11.592;2023-03-01T08:06:38;12.50;49.90
20568;DHT22;10442;49.932;11.592;2023-03-01T08:09:06;12.80;49.40
20568;DHT22;10442;49.932;11.592;2023-03-01T08:11:35;13.10;48.50
20568;DHT22;10442;49.932;11.592;2023-03-01T08:14:02;13.50;47.90
20568;DHT22;10442;49.932;11.592;2023-03-01T08:16:29;13.80;47.20
20568;DHT22;10442;49.932;11.592;2023-03-01T08:18:58;14.00;47.00
20568;DHT22;10442;49.932;11.592;2023-03-01T08:21:30;14.30;45.30
20568;DHT22;10442;49.932;11.592;2023-03-01T08:23:57;14.50;45.40
20568;DHT22;10442;49.932;11.592;2023-03-01T08:26:24;14.70;44.90
20568;DHT22;10442;49.932;11.592;2023-03-01T08:28:53;14.90;44.90
20568;DHT22;10442;49.932;11.592;2023-03-01T08:31:23;15.20;43.70
20568;DHT22;10442;49.932;11.592;2023-03-01T08:33:53;15.30;43.20
20568;DHT22;10442;49.932;11.592;2023-03-01T08:36:28;15.40;42.40
20568;DHT22;10442;49.932;11.592;2023-03-01T08:38:57;15.70;42.50
20568;DHT22;10442;49.932;11.592;2023-03-01T08:41:24;15.80;42.20
20568;DHT22;10442;49.932;11.592;2023-03-01T08:43:52;16.00;41.80
20568;DHT22;10442;49.932;11.592;2023-03-01T08:46:30;16.10;41.60
20568;DHT22;10442;49.932;11.592;2023-03-01T08:48:59;16.20;40.60
20568;DHT22;10442;49.932;11.592;2023-03-01T08:51:26;16.40;41.30
20568;DHT22;10442;49.932;11.592;2023-03-01T08:53:54;16.50;40.60
20568;DHT22;10442;49.932;11.592;2023-03-01T08:56:21;16.60;40.10
20568;DHT22;10442;49.932;11.592;2023-03-01T08:58:49;16.60;39.10
20568;DHT22;10442;49.932;11.592;2023-03-01T09:01:18;16.50;38.50
20568;DHT22;10442;49.932;11.592;2023-03-01T09:03:46;16.50;38.90
20568;DHT22;10442;49.932;11.592;2023-03-01T09:06:14;16.40;39.10
20568;DHT22;10442;49.932;11.592;2023-03-01T09:08:44;16.20;38.30
20568;DHT22;10442;49.932;11.592;2023-03-01T09:11:14;15.90;38.40
20568;DHT22;10442;49.932;11.592;2023-03-01T09:13:44;15.60;38.60
20568;DHT22;10442;49.932;11.592;2023-03-01T09:16:13;15.20;38.70
20568;DHT22;10442;49.932;11.592;2023-03-01T09:18:41;14.70;39.00
20568;DHT22;10442;49.932;11.592;2023-03-01T09:21:11;14.30;39.90
20568;DHT22;10442;49.932;11.592;2023-03-01T09:23:41;13.90;39.60
20568;DHT22;10442;49.932;11.592;2023-03-01T09:26:11;13.40;39.90
20568;DHT22;10442;49.932;11.592;2023-03-01T09:28:40;13.00;40.20
20568;DHT22;10442;49.932;11.592;2023-03-01T09:31:12;12.60;41.00
20568;DHT22;10442;49.932;11.592;2023-03-01T09:33:41;12.20;41.00
20568;DHT22;10442;49.932;11.592;2023-03-01T09:36:14;11.90;41.40
20568;DHT22;10442;49.932;11.592;2023-03-01T09:38:42;11.50;41.60
20568;DHT22;10442;49.932;11.592;2023-03-01T09:46:46;10.70;42.90
20568;DHT22;10442;49.932;11.592;2023-03-01T09:49:27;10.50;43.10
20568;DHT22;10442;49.932;11.592;2023-03-01T09:52:11;10.20;42.80
20568;DHT22;10442;49.932;11.592;2023-03-01T09:54:43;10.10;43.20
20568;DHT22;10442;49.932;11.592;2023-03-01T09:57:28;9.90;43.50
20568;DHT22;10442;49.932;11.592;2023-03-01T10:02:52;9.60;43.50
20568;DHT22;10442;49.932;11.592;2023-03-01T10:05:48;9.50;43.90
20568;DHT22;10442;49.932;11.592;2023-03-01T10:08:38;9.40;44.20
20568;DHT22;10442;49.932;11.592;2023-03-01T10:11:24;9.30;44.70
20568;DHT22;10442;49.932;11.592;2023-03-01T10:14:05;9.30;44.70
20568;DHT22;10442;49.932;11.592;2023-03-01T10:16:54;9.20;44.70
20568;DHT22;10442;49.932;11.592;2023-03-01T10:19:39;9.20;44.80
20568;DHT22;10442;49.932;11.592;2023-03-01T10:22:24;9.20;44.80
20568;DHT22;10442;49.932;11.592;2023-03-01T10:25:00;9.20;44.90
20568;DHT22;10442;49.932;11.592;2023-03-01T10:27:46;9.20;44.70
20568;DHT22;10442;49.932;11.592;2023-03-01T10:30:21;9.20;44.90
20568;DHT22;10442;49.932;11.592;2023-03-01T10:32:51;9.20;45.10
20568;DHT22;10442;49.932;11.592;2023-03-01T10:35:25;9.20;45.50
20568;DHT22;10442;49.932;11.592;2023-03-01T10:38:15;9.20;45.30
20568;DHT22;10442;49.932;11.592;2023-03-01T10:40:54;9.20;45.80
20568;DHT22;10442;49.932;11.592;2023-03-01T10:43:25;9.20;45.80
20568;DHT22;10442;49.932;11.592;2023-03-01T10:45:53;9.20;45.50
20568;DHT22;10442;49.932;11.592;2023-03-01T10:48:23;9.20;45.30
20568;DHT22;10442;49.932;11.592;2023-03-01T10:53:47;9.20;45.30
20568;DHT22;10442;49.932;11.592;2023-03-01T10:56:16;9.20;45.70
20568;DHT22;10442;49.932;11.592;2023-03-01T10:59:00;9.20;46.10
20568;DHT22;10442;49.932;11.592;2023-03-01T11:01:30;9.20;46.60
20568;DHT22;10442;49.932;11.592;2023-03-01T11:06:39;9.20;45.90
20568;DHT22;10442;49.932;11.592;2023-03-01T11:09:21;9.20;45.70
20568;DHT22;10442;49.932;11.592;2023-03-01T11:11:57;9.10;46.00
20568;DHT22;10442;49.932;11.592;2023-03-01T11:14:47;9.10;45.80
20568;DHT22;10442;49.932;11.592;2023-03-01T11:17:28;9.10;46.00
20568;DHT22;10442;49.932;11.592;2023-03-01T11:22:58;9.10;46.40
20568;DHT22;10442;49.932;11.592;2023-03-01T11:25:31;9.10;46.40
20568;DHT22;10442;49.932;11.592;2023-03-01T11:28:03;9.10;46.00
20568;DHT22;10442;49.932;11.592;2023-03-01T11:30:42;9.10;46.70
20568;DHT22;10442;49.932;11.592;2023-03-01T11:36:03;9.10;46.10
20568;DHT22;10442;49.932;11.592;2023-03-01T11:38:35;9.20;46.10
20568;DHT22;10442;49.932;11.592;2023-03-01T11:41:15;9.10;46.70
20568;DHT22;10442;49.932;11.592;2023-03-01T11:43:59;9.10;46.40
20568;DHT22;10442;49.932;11.592;2023-03-01T11:54:18;9.30;46.00
20568;DHT22;10442;49.932;11.592;2023-03-01T11:56:57;9.40;46.30
20568;DHT22;10442;49.932;11.592;2023-03-01T11:59:44;9.40;46.40
20568;DHT22;10442;49.932;11.592;2023-03-01T12:05:25;9.50;46.40
20568;DHT22;10442;49.932;11.592;2023-03-01T12:10:49;9.70;46.40
20568;DHT22;10442;49.932;11.592;2023-03-01T12:30:56;9.90;46.10
20568;DHT22;10442;49.932;11.592;2023-03-01T12:38:49;9.90;46.00
20568;DHT22;10442;49.932;11.592;2023-03-01T12:41:29;9.90;46.10
20568;DHT22;10442;49.932;11.592;2023-03-01T12:44:04;10.00;46.10
20568;DHT22;10442;49.932;11.592;2023-03-01T12:47:06;9.90;46.40
20568;DHT22;10442;49.932;11.592;2023-03-01T12:49:40;10.00;46.40
20568;DHT22;10442;49.932;11.592;2023-03-01T12:52:16;10.00;46.20
20568;DHT22;10442;49.932;11.592;2023-03-01T12:54:46;10.00;46.10
20568;DHT22;10442;49.932;11.592;2023-03-01T12:57:21;10.10;46.30
20568;DHT22;10442;49.932;11.592;2023-03-01T13:00:18;10.10;46.70
20568;DHT22;10442;49.932;11.592;2023-03-01T13:03:09;10.10;46.30
20568;DHT22;10442;49.932;11.592;2023-03-01T13:05:46;10.20;46.40
20568;DHT22;10442;49.932;11.592;2023-03-01T13:08:27;10.20;46.60
20568;DHT22;10442;49.932;11.592;2023-03-01T13:11:02;10.20;46.50
20568;DHT22;10442;49.932;11.592;2023-03-01T13:13:31;10.30;46.20
20568;DHT22;10442;49.932;11.592;2023-03-01T13:16:22;10.30;46.10
20568;DHT22;10442;49.932;11.592;2023-03-01T13:19:06;10.30;46.10
20568;DHT22;10442;49.932;11.592;2023-03-01T13:21:34;10.30;46.20
20568;DHT22;10442;49.932;11.592;2023-03-01T13:24:02;10.30;46.40
20568;DHT22;10442;49.932;11.592;2023-03-01T13:26:30;10.30;46.10
20568;DHT22;10442;49.932;11.592;2023-03-01T13:28:58;10.30;46.40
20568;DHT22;10442;49.932;11.592;2023-03-01T13:34:00;10.20;46.70
20568;DHT22;10442;49.932;11.592;2023-03-01T13:38:59;10.20;46.60
20568;DHT22;10442;49.932;11.592;2023-03-01T13:44:33;10.30;47.20
20568;DHT22;10442;49.932;11.592;2023-03-01T13:49:49;10.30;46.80
20568;DHT22;10442;49.932;11.592;2023-03-01T13:52:39;10.30;46.90
20568;DHT22;10442;49.932;11.592;2023-03-01T13:57:46;10.30;47.00
20568;DHT22;10442;49.932;11.592;2023-03-01T14:00:27;10.30;46.90
20568;DHT22;10442;49.932;11.592;2023-03-01T14:05:33;10.30;47.40
20568;DHT22;10442;49.932;11.592;2023-03-01T14:08:05;10.30;47.40
20568;DHT22;10442;49.932;11.592;2023-03-01T14:10:44;10.30;47.00
20568;DHT22;10442;49.932;11.592;2023-03-01T14:19:25;10.40;47.00
20568;DHT22;10442;49.932;11.592;2023-03-01T14:22:15;10.40;47.20
20568;DHT22;10442;49.932;11.592;2023-03-01T14:24:48;10.40;46.60
20568;DHT22;10442;49.932;11.592;2023-03-01T14:27:16;10.40;46.30
20568;DHT22;10442;49.932;11.592;2023-03-01T14:29:54;10.40;46.40
20568;DHT22;10442;49.932;11.592;2023-03-01T14:32:26;10.40;46.70
20568;DHT22;10442;49.932;11.592;2023-03-01T14:34:54;10.30;46.60
20568;DHT22;10442;49.932;11.592;2023-03-01T14:37:27;10.30;46.90
20568;DHT22;10442;49.932;11.592;2023-03-01T14:39:57;10.30;46.50
20568;DHT22;10442;49.932;11.592;2023-03-01T14:42:31;10.30;46.40
20568;DHT22;10442;49.932;11.592;2023-03-01T14:45:02;10.30;46.70
20568;DHT22;10442;49.932;11.592;2023-03-01T14:47:34;10.30;47.00
20568;DHT22;10442;49.932;11.592;2023-03-01T14:52:59;10.40;47.20
20568;DHT22;10442;49.932;11.592;2023-03-01T14:55:41;10.40;47.10
20568;DHT22;10442;49.932;11.592;2023-03-01T14:58:18;10.30;47.20
20568;DHT22;10442;49.932;11.592;2023-03-01T15:01:00;10.30;47.40
20568;DHT22;10442;49.932;11.592;2023-03-01T15:03:55;10.20;47.40
20568;DHT22;10442;49.932;11.592;2023-03-01T15:06:23;10.10;47.60
20568;DHT22;10442;49.932;11.592;2023-03-01T15:08:53;10.00;47.90
20568;DHT22;10442;49.932;11.592;2023-03-01T15:11:28;9.90;48.20
20568;DHT22;10442;49.932;11.592;2023-03-01T15:13:57;9.80;48.30
20568;DHT22;10442;49.932;11.592;2023-03-01T15:16:32;9.70;48.40
20568;DHT22;10442;49.932;11.592;2023-03-01T15:19:04;9.60;48.80
20568;DHT22;10442;49.932;11.592;2023-03-01T15:21:48;9.50;49.20
20568;DHT22;10442;49.932;11.592;2023-03-01T15:24:26;9.40;49.30
20568;DHT22;10442;49.932;11.592;2023-03-01T15:27:01;9.40;49.50
20568;DHT22;10442;49.932;11.592;2023-03-01T15:29:34;9.30;49.80
20568;DHT22;10442;49.932;11.592;2023-03-01T15:32:32;9.20;50.10
20568;DHT22;10442;49.932;11.592;2023-03-01T15:35:31;9.10;50.20
20568;DHT22;10442;49.932;11.592;2023-03-01T15:37:49;9.10;50.50
20568;DHT22;10442;49.932;11.592;2023-03-01T15:40:28;9.00;50.50
20568;DHT22;10442;49.932;11.592;2023-03-01T15:43:00;9.00;50.60
20568;DHT22;10442;49.932;11.592;2023-03-01T15:45:30;9.00;50.90
20568;DHT22;10442;49.932;11.592;2023-03-01T15:48:02;8.90;51.20
20568;DHT22;10442;49.932;11.592;2023-03-01T15:50:34;8.90;51.20
20568;DHT22;10442;49.932;11.592;2023-03-01T15:53:06;8.80;51.40
20568;DHT22;10442;49.932;11.592;2023-03-01T15:55:34;8.80;51.40
20568;DHT22;10442;49.932;11.592;2023-03-01T15:58:20;8.70;51.40
20568;DHT22;10442;49.932;11.592;2023-03-01T16:00:48;8.70;51.60
20568;DHT22;10442;49.932;11.592;2023-03-01T16:03:28;8.60;51.80
20568;DHT22;10442;49.932;11.592;2023-03-01T16:05:55;8.60;51.80
20568;DHT22;10442;49.932;11.592;2023-03-01T16:08:22;8.50;52.20
20568;DHT22;10442;49.932;11.592;2023-03-01T16:10:50;8.50;52.40
20568;DHT22;10442;49.932;11.592;2023-03-01T16:13:18;8.30;52.60
20568;DHT22;10442;49.932;11.592;2023-03-01T16:15:46;8.30;52.60
20568;DHT22;10442;49.932;11.592;2023-03-01T16:18:14;8.20;52.60
20568;DHT22;10442;49.932;11.592;2023-03-01T16:20:41;8.20;52.80
20568;DHT22;10442;49.932;11.592;2023-03-01T16:23:10;8.10;52.90
20568;DHT22;10442;49.932;11.592;2023-03-01T16:25:38;8.10;52.20
20568;DHT22;10442;49.932;11.592;2023-03-01T16:28:05;8.10;52.90
20568;DHT22;10442;49.932;11.592;2023-03-01T16:30:37;8.00;53.10
20568;DHT22;10442;49.932;11.592;2023-03-01T16:33:06;8.00;53.30
20568;DHT22;10442;49.932;11.592;2023-03-01T16:35:55;7.90;53.10
20568;DHT22;10442;49.932;11.592;2023-03-01T16:38:22;7.90;53.20
20568;DHT22;10442;49.932;11.592;2023-03-01T16:40:51;7.80;53.00
20568;DHT22;10442;49.932;11.592;2023-03-01T16:43:18;7.80;53.30
20568;DHT22;10442;49.932;11.592;2023-03-01T16:45:46;7.70;53.20
20568;DHT22;10442;49.932;11.592;2023-03-01T16:48:14;7.70;53.20
20568;DHT22;10442;49.932;11.592;2023-03-01T16:50:42;7.60;53.20
20568;DHT22;10442;49.932;11.592;2023-03-01T16:53:10;7.60;53.30
20568;DHT22;10442;49.932;11.592;2023-03-01T16:55:39;7.50;53.70
20568;DHT22;10442;49.932;11.592;2023-03-01T16:58:12;7.50;53.90
20568;DHT22;10442;49.932;11.592;2023-03-01T17:00:40;7.40;54.00
20568;DHT22;10442;49.932;11.592;2023-03-01T17:03:07;7.30;54.20
20568;DHT22;10442;49.932;11.592;2023-03-01T17:05:35;7.20;54.20
20568;DHT22;10442;49.932;11.592;2023-03-01T17:08:02;7.20;54.20
20568;DHT22;10442;49.932;11.592;2023-03-01T17:10:30;7.10;54.20
20568;DHT22;10442;49.932;11.592;2023-03-01T17:12:57;7.10;54.30
20568;DHT22;10442;49.932;11.592;2023-03-01T17:15:25;7.00;54.60
20568;DHT22;10442;49.932;11.592;2023-03-01T17:17:52;7.00;54.90
20568;DHT22;10442;49.932;11.592;2023-03-01T17:20:20;6.90;55.00
20568;DHT22;10442;49.932;11.592;2023-03-01T17:22:47;6.80;55.10
20568;DHT22;10442;49.932;11.592;2023-03-01T17:25:14;6.80;55.40